Time;durP1;ratioP1;P1;durP2;ratioP2;P2;SDS_P1;SDS_P2;PMS_P1;PMS_P2;Temp;Humidity;BMP_temperature;BMP_pressure;BME280_temperature;BME280_humidity;BME280_pressure;Samples;Min_cycle;Max_cycle;Signal;HPM_P1;HPM_P2
2023/03/22 00:00:44;;;;;;;12.52;1.60;;;11.00;99.90;;;;;;5038860;28;20033;-83
2023/03/22 00:03:10;;;;;;;8.75;1.95;;;11.00;99.90;;;;;;5037227;28;20052;-84
2023/03/22 00:05:38;;;;;;;7.55;1.42;;;11.00;99.90;;;;;;5038053;28;20033;-83
2023/03/22 00:08:06;;;;;;;9.40;1.75;;;11.10;99.90;;;;;;5038124;28;20059;-85
2023/03/22 00:10:32;;;;;;;9.55;1.70;;;11.10;99.90;;;;;;5020792;28;20071;-85
2023/03/22 00:12:59;;;;;;;5.00;1.17;;;11.10;99.90;;;;;;5037925;28;20087;-83
2023/03/22 00:15:28;;;;;;;10.40;1.40;;;11.10;99.90;;;;;;5021070;28;20051;-87
2023/03/22 00:17:55;;;;;;;10.02;1.60;;;11.10;99.90;;;;;;5021612;28;20041;-87
2023/03/22 00:20:22;;;;;;;8.50;1.60;;;11.10;99.90;;;;;;5021704;28;20048;-85
2023/03/22 00:22:49;;;;;;;14.32;2.00;;;11.10;99.90;;;;;;5020607;28;20087;-83
2023/03/22 00:25:16;;;;;;;6.90;1.38;;;11.10;99.90;;;;;;5055306;28;20040;-85
2023/03/22 00:27:42;;;;;;;9.23;1.70;;;11.10;99.90;;;;;;5037862;28;20500;-83
2023/03/22 00:30:09;;;;;;;12.77;1.98;;;11.10;99.90;;;;;;5037296;28;20472;-85
2023/03/22 00:32:36;;;;;;;9.07;1.60;;;11.10;99.90;;;;;;5021216;28;20072;-83
2023/03/22 00:35:02;;;;;;;8.13;1.50;;;11.20;99.90;;;;;;5037358;28;20049;-84
2023/03/22 00:37:37;;;;;;;11.10;1.73;;;11.10;99.90;;;;;;5037601;28;20048;-85
2023/03/22 00:40:03;;;;;;;17.67;2.00;;;11.10;99.90;;;;;;5037741;28;20140;-85
2023/03/22 00:42:30;;;;;;;9.98;1.48;;;11.10;99.90;;;;;;5036012;28;20043;-86
2023/03/22 00:44:57;;;;;;;14.50;2.03;;;11.20;99.90;;;;;;5040420;28;20065;-83
2023/03/22 00:50:13;;;;;;;12.07;1.73;;;11.20;99.90;;;;;;5073166;28;20049;-86
2023/03/22 00:52:40;;;;;;;14.00;2.17;;;11.10;99.90;;;;;;5057724;28;20055;-84
2023/03/22 00:55:07;;;;;;;9.77;1.63;;;11.10;99.90;;;;;;5056680;28;20055;-83
2023/03/22 00:57:35;;;;;;;5.28;1.55;;;11.10;99.90;;;;;;5037919;28;20048;-86
2023/03/22 01:00:14;;;;;;;5.70;1.40;;;11.10;99.90;;;;;;5053974;28;20056;-86
2023/03/22 01:02:43;;;;;;;8.18;1.50;;;11.10;99.90;;;;;;5036824;28;20479;-86
2023/03/22 01:05:15;;;;;;;15.65;2.28;;;11.10;99.90;;;;;;5037971;28;20136;-83
2023/03/22 01:07:43;;;;;;;10.50;1.88;;;11.10;99.90;;;;;;5036959;28;20384;-83
2023/03/22 01:10:10;;;;;;;7.47;1.75;;;11.10;99.90;;;;;;5036532;28;20375;-85
2023/03/22 01:12:37;;;;;;;10.50;2.25;;;11.10;99.90;;;;;;5053615;28;20052;-82
2023/03/22 01:15:03;;;;;;;8.07;2.10;;;11.10;99.90;;;;;;5053031;28;20037;-85
2023/03/22 01:17:31;;;;;;;6.65;1.40;;;11.10;99.90;;;;;;5037199;28;20049;-84
2023/03/22 01:19:58;;;;;;;11.05;1.90;;;11.10;99.90;;;;;;5053839;28;20112;-84
2023/03/22 01:22:25;;;;;;;9.73;1.80;;;11.00;99.90;;;;;;5052852;28;20037;-85
2023/03/22 01:24:53;;;;;;;13.50;2.13;;;11.10;99.90;;;;;;5070800;28;20077;-83
2023/03/22 01:27:21;;;;;;;15.00;2.17;;;11.00;99.90;;;;;;5053675;28;20072;-83
2023/03/22 01:29:47;;;;;;;13.07;1.75;;;11.10;99.90;;;;;;5053225;28;20064;-86
2023/03/22 01:32:14;;;;;;;12.75;1.85;;;11.10;99.90;;;;;;5070154;28;20056;-85
2023/03/22 01:34:41;;;;;;;9.75;1.40;;;11.10;99.90;;;;;;5070449;28;20041;-83
2023/03/22 01:37:10;;;;;;;9.82;1.95;;;11.00;99.90;;;;;;5052897;28;20068;-83
2023/03/22 01:39:42;;;;;;;13.15;1.83;;;11.00;99.90;;;;;;5053874;28;20076;-86
2023/03/22 01:42:11;;;;;;;10.18;1.83;;;11.10;99.90;;;;;;5069354;28;20041;-84
2023/03/22 01:44:38;;;;;;;17.40;1.88;;;11.10;99.90;;;;;;5036911;28;20135;-84
2023/03/22 01:47:05;;;;;;;8.80;1.77;;;11.10;99.90;;;;;;5037060;28;20467;-84
2023/03/22 01:49:31;;;;;;;13.60;2.00;;;11.10;99.90;;;;;;5036105;28;20069;-83
2023/03/22 01:51:58;;;;;;;10.23;2.08;;;11.10;99.90;;;;;;5036792;28;20140;-84
2023/03/22 01:54:34;;;;;;;11.98;1.85;;;11.00;99.90;;;;;;5070053;28;20053;-84
2023/03/22 01:57:12;;;;;;;14.63;2.17;;;11.00;99.90;;;;;;5037616;28;20068;-83
2023/03/22 01:59:41;;;;;;;9.48;1.95;;;11.10;99.90;;;;;;5053621;28;20038;-86
2023/03/22 02:02:29;;;;;;;18.35;2.15;;;11.10;99.90;;;;;;5052886;28;20370;-84
2023/03/22 02:05:07;;;;;;;9.93;1.70;;;11.10;99.90;;;;;;5053305;28;20045;-84
2023/03/22 02:07:34;;;;;;;11.75;1.95;;;11.10;99.90;;;;;;5036817;28;20494;-84
2023/03/22 02:10:01;;;;;;;12.55;2.20;;;11.10;99.90;;;;;;5036096;28;20047;-83
2023/03/22 02:12:39;;;;;;;9.77;1.95;;;11.10;99.90;;;;;;5038329;28;20132;-83
2023/03/22 02:15:20;;;;;;;12.48;2.20;;;11.10;99.90;;;;;;5038131;28;20475;-84
2023/03/22 02:17:50;;;;;;;15.93;2.10;;;11.10;99.90;;;;;;5053610;28;20045;-84
2023/03/22 02:20:17;;;;;;;9.90;1.83;;;11.10;99.90;;;;;;5039943;28;20063;-84
2023/03/22 02:22:44;;;;;;;12.00;1.90;;;11.10;99.90;;;;;;5073197;28;20048;-83
2023/03/22 02:25:11;;;;;;;16.27;2.50;;;11.10;99.90;;;;;;5056586;28;20076;-82
2023/03/22 02:27:39;;;;;;;10.77;2.25;;;11.10;99.90;;;;;;5057235;28;20047;-83
2023/03/22 02:30:05;;;;;;;16.35;2.40;;;11.10;99.90;;;;;;5055554;28;20143;-84
2023/03/22 02:32:33;;;;;;;16.77;2.50;;;11.10;99.90;;;;;;5073416;28;20063;-86
2023/03/22 02:34:59;;;;;;;11.27;1.88;;;10.90;99.90;;;;;;5073298;28;20378;-83
2023/03/22 02:37:26;;;;;;;14.70;2.08;;;10.80;99.90;;;;;;5040063;28;20080;-84
2023/03/22 02:39:53;;;;;;;13.93;1.95;;;10.80;99.90;;;;;;5073123;28;20463;-86
2023/03/22 02:42:19;;;;;;;13.27;2.13;;;10.80;99.90;;;;;;5055674;28;20503;-83
2023/03/22 02:44:46;;;;;;;17.88;2.75;;;10.70;99.90;;;;;;5039675;28;20079;-84
2023/03/22 02:47:15;;;;;;;14.88;2.08;;;10.70;99.90;;;;;;5072940;28;20581;-84
2023/03/22 02:49:42;;;;;;;8.27;1.83;;;10.70;99.90;;;;;;5039019;28;20132;-84
2023/03/22 02:52:09;;;;;;;12.93;2.22;;;10.70;99.90;;;;;;5039566;28;20140;-87
2023/03/22 02:54:36;;;;;;;7.32;1.52;;;10.70;99.90;;;;;;5057383;28;20490;-86
2023/03/22 02:59:32;;;;;;;13.52;1.90;;;10.70;99.90;;;;;;5096400;28;20047;-87
2023/03/22 03:01:59;;;;;;;11.93;1.92;;;10.70;99.90;;;;;;5095293;28;20062;-83
2023/03/22 03:04:26;;;;;;;17.73;1.70;;;10.70;99.90;;;;;;5096277;28;20043;-83
2023/03/22 03:09:40;;;;;;;5.85;2.00;;;10.70;99.90;;;;;;5095397;28;20135;-86
2023/03/22 03:12:06;;;;;;;12.05;2.00;;;10.70;99.90;;;;;;5095858;28;20062;-83
2023/03/22 03:14:33;;;;;;;13.50;2.17;;;10.70;99.90;;;;;;5079226;28;20101;-84
2023/03/22 03:17:01;;;;;;;19.75;2.88;;;10.70;99.90;;;;;;5078556;28;20199;-84
2023/03/22 03:19:29;;;;;;;11.05;1.77;;;10.70;99.90;;;;;;5095909;28;20086;-82
2023/03/22 03:21:56;;;;;;;17.10;1.80;;;10.80;99.90;;;;;;5078254;28;20036;-85
2023/03/22 03:24:23;;;;;;;15.07;2.20;;;10.70;99.90;;;;;;5095971;28;20059;-85
2023/03/22 03:26:50;;;;;;;16.40;2.05;;;10.70;99.90;;;;;;5095712;28;20487;-83
2023/03/22 03:29:17;;;;;;;7.43;1.95;;;10.70;99.90;;;;;;5078181;28;20515;-84
2023/03/22 03:31:45;;;;;;;8.77;1.77;;;10.70;99.90;;;;;;5095330;28;20087;-84
2023/03/22 03:34:12;;;;;;;10.07;1.70;;;10.60;99.90;;;;;;5096590;28;20481;-84
2023/03/22 03:36:38;;;;;;;12.50;1.75;;;10.60;99.90;;;;;;5095752;28;20048;-84
2023/03/22 03:39:06;;;;;;;8.15;1.77;;;10.60;99.90;;;;;;5095713;28;20075;-86
2023/03/22 03:41:33;;;;;;;6.63;1.08;;;10.60;99.90;;;;;;5095796;28;20040;-82
2023/03/22 03:44:00;;;;;;;12.45;2.30;;;10.60;99.90;;;;;;5077832;28;20084;-86
2023/03/22 03:46:28;;;;;;;10.20;1.85;;;10.50;99.90;;;;;;5078677;28;20044;-82
2023/03/22 03:48:54;;;;;;;7.43;1.50;;;10.50;99.90;;;;;;5094785;28;20052;-83
2023/03/22 03:51:21;;;;;;;14.70;1.90;;;10.50;99.90;;;;;;5095384;28;20048;-85
2023/03/22 03:53:48;;;;;;;12.75;1.95;;;10.50;99.90;;;;;;5078392;28;20086;-82
2023/03/22 03:56:16;;;;;;;7.65;1.30;;;10.40;99.90;;;;;;5094317;28;20043;-83
2023/03/22 03:58:45;;;;;;;13.75;1.85;;;10.40;99.90;;;;;;5095358;28;20351;-84
2023/03/22 04:01:12;;;;;;;15.27;1.60;;;10.40;99.90;;;;;;5078584;28;20474;-84
2023/03/22 04:03:54;;;;;;;7.25;1.67;;;10.40;99.90;;;;;;5079460;28;20044;-83
2023/03/22 04:09:39;;;;;;;7.68;1.42;;;10.30;99.90;;;;;;5094237;28;20450;-86
2023/03/22 04:12:29;;;;;;;7.63;1.40;;;10.30;99.90;;;;;;5095194;28;20044;-83
2023/03/22 04:15:14;;;;;;;10.38;2.28;;;10.30;99.90;;;;;;5095074;28;20082;-85
2023/03/22 04:17:45;;;;;;;9.68;1.58;;;10.30;99.90;;;;;;5078555;28;20059;-85
2023/03/22 04:20:13;;;;;;;6.63;1.80;;;10.30;99.90;;;;;;5094855;28;20493;-83
2023/03/22 04:22:40;;;;;;;6.50;1.15;;;10.30;99.90;;;;;;5093811;28;20044;-84
2023/03/22 04:25:10;;;;;;;6.30;1.60;;;10.30;99.90;;;;;;5095728;28;20087;-83
2023/03/22 04:27:42;;;;;;;4.13;1.15;;;10.30;99.90;;;;;;5095128;28;20051;-83
2023/03/22 04:30:10;;;;;;;7.28;1.63;;;10.30;99.90;;;;;;5077473;28;20082;-85
2023/03/22 04:33:05;;;;;;;;;;;10.20;99.90;;;;;;5095960;28;20135;-86
2023/03/22 04:35:55;;;;;;;5.55;1.40;;;10.20;99.90;;;;;;5043923;28;19963;-86
2023/03/22 04:38:28;;;;;;;6.40;1.55;;;10.20;99.90;;;;;;5095019;28;20466;-83
2023/03/22 04:40:56;;;;;;;4.60;1.20;;;10.10;99.90;;;;;;5094516;28;20077;-84
2023/03/22 04:43:33;;;;;;;5.82;1.20;;;10.10;99.90;;;;;;5093625;28;20047;-85
2023/03/22 04:46:04;;;;;;;3.47;0.95;;;10.10;99.90;;;;;;5041408;28;20036;-83
2023/03/22 04:48:38;;;;;;;9.88;1.30;;;10.10;99.90;;;;;;5041386;28;20075;-82
2023/03/22 04:51:05;;;;;;;7.65;1.63;;;10.10;99.90;;;;;;5041094;28;20158;-83
2023/03/22 04:53:38;;;;;;;7.78;1.30;;;10.10;99.90;;;;;;5041352;28;20044;-84
2023/03/22 04:58:35;;;;;;;4.78;0.98;;;10.10;99.90;;;;;;5037523;28;20052;-86
2023/03/22 05:01:02;;;;;;;7.55;1.20;;;10.10;99.90;;;;;;5021240;28;20045;-82
2023/03/22 05:03:29;;;;;;;5.63;1.27;;;10.10;99.90;;;;;;5036860;28;20353;-86
2023/03/22 05:05:57;;;;;;;7.55;1.27;;;10.00;99.90;;;;;;5021130;28;20044;-87
2023/03/22 05:08:32;;;;;;;5.25;1.70;;;10.00;99.90;;;;;;5022429;28;20375;-85
2023/03/22 05:11:00;;;;;;;6.78;1.20;;;10.10;99.90;;;;;;5021350;28;20037;-84
2023/03/22 05:13:27;;;;;;;5.25;1.27;;;10.00;99.90;;;;;;5021032;28;20135;-83
2023/03/22 05:15:56;;;;;;;4.40;1.02;;;10.00;99.90;;;;;;5020419;28;20107;-87
2023/03/22 05:18:31;;;;;;;5.07;1.50;;;10.00;99.90;;;;;;5054040;28;20037;-87
2023/03/22 05:20:58;;;;;;;5.03;1.10;;;10.00;99.90;;;;;;5037392;28;20041;-83
2023/03/22 05:23:25;;;;;;;8.60;1.17;;;10.00;99.90;;;;;;5038570;28;20045;-83
2023/03/22 05:25:57;;;;;;;4.95;1.23;;;10.00;99.90;;;;;;5022430;28;20099;-85
2023/03/22 05:28:26;;;;;;;9.40;1.75;;;10.00;99.90;;;;;;5021501;28;20041;-85
2023/03/22 05:31:08;;;;;;;6.75;1.20;;;10.00;99.90;;;;;;5023875;28;20037;-85
2023/03/22 05:33:45;;;;;;;6.53;1.63;;;10.00;99.90;;;;;;5022196;28;20126;-85
2023/03/22 05:39:26;;;;;;;5.53;1.35;;;10.00;99.90;;;;;;5049583;28;20045;-85
2023/03/22 05:41:53;;;;;;;3.63;1.10;;;10.00;99.90;;;;;;5020406;28;20460;-86
2023/03/22 05:44:20;;;;;;;6.45;1.33;;;10.00;99.90;;;;;;5023510;28;20057;-84
2023/03/22 05:46:59;;;;;;;4.10;1.15;;;10.00;99.90;;;;;;5068559;28;20122;-81
2023/03/22 05:49:38;;;;;;;5.63;1.05;;;10.00;99.90;;;;;;5068126;28;20059;-84
2023/03/22 05:52:06;;;;;;;3.20;1.00;;;10.00;99.90;;;;;;5070001;28;20053;-86
2023/03/22 05:54:47;;;;;;;4.65;1.40;;;10.00;99.90;;;;;;5074075;28;20506;-86
2023/03/22 06:00:00;;;;;;;3.72;1.13;;;10.00;99.90;;;;;;5077372;28;20049;-87
2023/03/22 06:02:38;;;;;;;8.48;1.38;;;10.00;99.90;;;;;;5076618;28;20041;-85
2023/03/22 06:05:05;;;;;;;3.45;1.00;;;10.00;99.90;;;;;;5077359;28;20051;-83
2023/03/22 06:07:33;;;;;;;10.00;1.20;;;10.00;99.90;;;;;;5077263;28;20047;-87
2023/03/22 06:10:13;;;;;;;6.38;1.27;;;10.10;99.90;;;;;;5077415;28;20073;-84
2023/03/22 06:12:39;;;;;;;4.75;1.00;;;10.10;99.90;;;;;;5060439;28;20501;-88
2023/03/22 06:15:12;;;;;;;3.95;1.17;;;10.10;99.90;;;;;;5060541;28;20459;-86
2023/03/22 06:18:05;;;;;;;9.23;1.25;;;10.10;99.90;;;;;;5074572;28;20091;-85
2023/03/22 06:20:37;;;;;;;7.05;1.23;;;10.00;99.90;;;;;;5062145;28;20075;-87
2023/03/22 06:23:11;;;;;;;5.88;1.25;;;10.10;99.90;;;;;;5076023;28;20040;-85
2023/03/22 06:25:42;;;;;;;9.93;1.20;;;10.10;99.90;;;;;;5060653;28;20489;-88
2023/03/22 06:28:09;;;;;;;3.65;1.10;;;10.00;99.90;;;;;;5060328;28;20494;-83
2023/03/22 06:30:37;;;;;;;6.38;1.40;;;10.00;99.90;;;;;;5075580;28;20049;-84
2023/03/22 06:33:23;;;;;;;6.22;1.00;;;10.00;99.90;;;;;;5076475;28;20052;-83
2023/03/22 06:39:03;;;;;;;5.72;1.25;;;10.00;99.90;;;;;;5076833;28;20044;-88
2023/03/22 06:41:31;;;;;;;8.45;1.27;;;10.10;99.90;;;;;;5076518;28;20086;-84
2023/03/22 06:43:59;;;;;;;3.80;1.33;;;10.10;99.90;;;;;;5059428;28;20055;-87
2023/03/22 06:47:03;;;;;;;4.05;1.23;;;10.10;99.90;;;;;;5035661;28;20124;-85
2023/03/22 06:49:48;;;;;;;2.72;0.90;;;10.10;99.90;;;;;;5072092;28;20062;-88
2023/03/22 06:52:21;;;;;;;2.13;0.93;;;10.10;99.90;;;;;;5076414;28;20417;-88
2023/03/22 06:54:48;;;;;;;3.58;1.00;;;10.20;99.90;;;;;;5076514;28;20113;-88
2023/03/22 07:00:03;;;;;;;6.55;1.30;;;10.20;99.90;;;;;;5076270;28;20139;-86
2023/03/22 07:02:30;;;;;;;7.82;1.58;;;10.20;99.90;;;;;;5058810;28;20045;-89
2023/03/22 07:05:20;;;;;;;4.55;1.38;;;10.30;99.90;;;;;;5075593;28;20044;-85
2023/03/22 07:07:49;;;;;;;5.80;1.35;;;10.30;99.90;;;;;;5059544;28;20040;-87
2023/03/22 07:10:16;;;;;;;5.30;1.20;;;10.30;99.90;;;;;;5076072;28;20037;-85
2023/03/22 07:12:43;;;;;;;5.93;1.20;;;10.30;99.90;;;;;;5076143;28;20072;-88
2023/03/22 07:15:13;;;;;;;10.43;1.52;;;10.40;99.90;;;;;;5075817;28;20414;-85
2023/03/22 07:20:35;;;;;;;6.43;1.65;;;10.40;99.90;;;;;;5077061;28;20518;-85
2023/03/22 07:23:02;;;;;;;10.98;1.65;;;10.40;99.90;;;;;;5058805;28;20437;-84
2023/03/22 07:25:33;;;;;;;5.93;1.33;;;10.50;99.90;;;;;;5076080;28;20064;-84
2023/03/22 07:28:14;;;;;;;12.63;1.80;;;10.50;99.90;;;;;;5076140;28;20055;-85
2023/03/22 07:30:41;;;;;;;12.57;2.45;;;10.50;99.90;;;;;;5075304;28;20054;-86
2023/03/22 07:33:10;;;;;;;8.13;1.88;;;10.50;99.90;;;;;;5059135;28;20055;-88
2023/03/22 07:35:40;;;;;;;7.53;1.38;;;10.60;99.90;;;;;;5074995;28;20075;-84
2023/03/22 07:38:07;;;;;;;10.02;1.70;;;10.60;99.90;;;;;;5075759;28;20566;-84
2023/03/22 07:40:33;;;;;;;9.63;1.50;;;10.60;99.90;;;;;;5075478;28;20055;-82
2023/03/22 07:43:01;;;;;;;13.05;2.03;;;10.60;99.90;;;;;;5074506;28;20036;-86
2023/03/22 07:45:44;;;;;;;11.93;2.10;;;10.60;99.90;;;;;;5075851;28;20076;-87
2023/03/22 07:48:30;;;;;;;9.52;1.83;;;10.60;99.90;;;;;;5076012;28;20056;-87
2023/03/22 07:51:18;;;;;;;11.68;1.63;;;10.60;99.90;;;;;;5063564;28;20094;-86
2023/03/22 07:53:45;;;;;;;11.63;1.83;;;10.60;99.90;;;;;;5040924;28;20392;-84
2023/03/22 07:56:13;;;;;;;8.75;1.63;;;10.70;99.90;;;;;;5069896;28;20040;-85
2023/03/22 07:58:39;;;;;;;11.30;1.67;;;10.70;99.90;;;;;;5038473;28;20529;-83
2023/03/22 08:01:09;;;;;;;8.73;1.88;;;10.70;99.90;;;;;;5066018;28;20041;-86
2023/03/22 08:03:51;;;;;;;10.00;2.17;;;10.70;99.90;;;;;;5068510;28;20137;-83
2023/03/22 08:06:32;;;;;;;16.10;2.15;;;10.70;99.90;;;;;;5074504;28;20076;-84
2023/03/22 08:08:59;;;;;;;11.88;2.15;;;10.70;99.90;;;;;;5057677;28;20054;-87
2023/03/22 08:11:26;;;;;;;9.25;1.88;;;10.80;99.90;;;;;;5057689;28;20509;-85
2023/03/22 08:13:54;;;;;;;14.50;1.90;;;10.80;99.90;;;;;;5057927;28;20410;-88
2023/03/22 08:19:25;;;;;;;9.07;1.60;;;10.70;99.90;;;;;;5074819;28;20043;-88
2023/03/22 08:21:52;;;;;;;14.38;2.10;;;10.80;99.90;;;;;;5073574;28;20044;-83
2023/03/22 08:24:39;;;;;;;11.93;2.33;;;10.80;99.90;;;;;;5073401;28;20044;-85
2023/03/22 08:27:13;;;;;;;15.18;2.55;;;10.80;99.90;;;;;;5058772;28;20044;-83
2023/03/22 08:29:49;;;;;;;11.05;1.95;;;10.80;99.90;;;;;;5058229;28;20540;-84
2023/03/22 08:32:16;;;;;;;12.43;1.77;;;10.80;99.90;;;;;;5054136;28;20429;-84
2023/03/22 08:34:44;;;;;;;9.13;1.65;;;10.80;99.90;;;;;;5071425;28;20041;-83
2023/03/22 08:40:00;;;;;;;9.65;1.70;;;10.90;99.90;;;;;;5070838;28;20136;-82
2023/03/22 08:42:53;;;;;;;5.10;1.30;;;10.90;99.90;;;;;;5054086;28;20083;-80
2023/03/22 08:45:20;;;;;;;6.47;1.40;;;11.00;99.90;;;;;;5053983;28;20060;-83
2023/03/22 08:47:54;;;;;;;10.77;1.35;;;11.00;99.90;;;;;;5054583;28;20059;-82
2023/03/22 08:50:23;;;;;;;9.18;1.63;;;11.10;99.90;;;;;;5052777;28;20491;-81
2023/03/22 08:52:59;;;;;;;9.15;1.45;;;11.10;99.90;;;;;;5063045;28;20378;-84
2023/03/22 08:55:34;;;;;;;6.18;1.20;;;11.20;99.90;;;;;;5057353;28;20056;-81
2023/03/22 08:58:10;;;;;;;7.85;1.20;;;11.30;99.90;;;;;;5063175;28;20455;-81
2023/03/22 09:00:48;;;;;;;8.30;1.17;;;11.30;99.90;;;;;;5073591;28;20045;-81
2023/03/22 09:03:24;;;;;;;3.42;1.15;;;11.40;99.90;;;;;;5057205;28;20059;-84
2023/03/22 09:05:51;;;;;;;5.15;1.10;;;11.40;99.90;;;;;;5057165;28;20495;-80
2023/03/22 09:08:17;;;;;;;8.07;1.25;;;11.40;99.90;;;;;;5057141;28;20045;-85
2023/03/22 09:10:50;;;;;;;;;;;11.40;99.90;;;;;;5074415;28;20059;-81
2023/03/22 09:13:19;;;;;;;8.30;1.40;;;11.40;99.90;;;;;;5074410;28;19920;-82
2023/03/22 09:15:58;;;;;;;7.25;1.33;;;11.30;99.90;;;;;;5057708;28;20048;-82
2023/03/22 09:18:28;;;;;;;7.97;1.45;;;11.20;99.90;;;;;;5073200;28;20087;-86
2023/03/22 09:20:58;;;;;;;6.18;1.40;;;11.20;99.90;;;;;;5057069;28;20055;-83
2023/03/22 09:23:31;;;;;;;7.50;1.35;;;11.30;99.90;;;;;;5072543;28;20048;-83
2023/03/22 09:25:59;;;;;;;6.65;1.40;;;11.30;99.90;;;;;;5073389;28;20041;-83
2023/03/22 09:28:26;;;;;;;4.18;1.20;;;11.40;99.90;;;;;;5057429;28;20047;-82
2023/03/22 09:30:56;;;;;;;7.65;1.48;;;11.40;99.90;;;;;;5061210;28;20060;-83
2023/03/22 09:33:23;;;;;;;4.32;1.10;;;11.50;99.90;;;;;;5077451;28;20041;-82
2023/03/22 09:35:51;;;;;;;7.25;1.58;;;11.60;99.90;;;;;;5059442;28;20045;-83
2023/03/22 09:38:19;;;;;;;4.90;1.40;;;11.70;99.90;;;;;;5060944;28;20055;-84
2023/03/22 09:40:46;;;;;;;4.05;1.40;;;11.70;99.90;;;;;;5076038;28;20088;-84
2023/03/22 09:43:12;;;;;;;4.03;1.17;;;11.80;99.90;;;;;;5075438;28;20045;-83
2023/03/22 09:45:40;;;;;;;5.43;1.30;;;11.90;99.90;;;;;;5060409;28;20053;-82
2023/03/22 09:48:08;;;;;;;2.38;1.10;;;12.00;99.90;;;;;;5077165;28;20119;-83
2023/03/22 09:50:34;;;;;;;5.72;1.20;;;12.00;99.90;;;;;;5076054;28;20447;-87
2023/03/22 09:53:01;;;;;;;4.50;1.05;;;12.10;99.90;;;;;;5060055;28;20052;-83
2023/03/22 09:55:28;;;;;;;4.65;1.10;;;12.20;99.90;;;;;;5059198;28;20044;-83
2023/03/22 09:57:54;;;;;;;4.30;1.10;;;12.30;99.90;;;;;;5076718;28;20044;-85
2023/03/22 10:00:21;;;;;;;3.03;1.00;;;12.40;99.90;;;;;;5060542;28;20064;-84
2023/03/22 10:02:48;;;;;;;3.47;1.10;;;12.50;99.90;;;;;;5075601;28;20039;-83
2023/03/22 10:05:15;;;;;;;2.40;0.90;;;12.60;99.90;;;;;;5076790;28;20044;-83
2023/03/22 10:07:41;;;;;;;2.10;0.77;;;12.60;99.90;;;;;;5060187;28;20049;-84
2023/03/22 10:10:08;;;;;;;8.38;1.10;;;12.50;99.90;;;;;;5059109;28;20049;-84
2023/03/22 10:12:35;;;;;;;5.00;0.90;;;12.60;99.90;;;;;;5076246;28;20151;-84
2023/03/22 10:15:01;;;;;;;2.42;0.82;;;12.60;99.90;;;;;;5075886;28;20044;-85
2023/03/22 10:17:29;;;;;;;3.78;1.00;;;12.60;99.90;;;;;;5076663;28;20052;-84
2023/03/22 10:19:56;;;;;;;3.90;1.00;;;12.60;99.90;;;;;;5076332;28;20053;-84
2023/03/22 10:22:23;;;;;;;3.15;0.85;;;12.70;99.90;;;;;;5075120;28;20044;-82
2023/03/22 10:24:50;;;;;;;4.72;1.13;;;12.80;99.90;;;;;;5077196;28;20123;-84
2023/03/22 10:27:17;;;;;;;2.83;0.90;;;12.90;99.90;;;;;;5076993;28;20067;-84
2023/03/22 10:29:44;;;;;;;2.42;0.95;;;13.00;99.90;;;;;;5076368;28;20036;-84
2023/03/22 10:32:11;;;;;;;7.00;1.30;;;13.20;99.90;;;;;;5076129;28;20577;-84
2023/03/22 10:34:37;;;;;;;3.10;0.88;;;13.30;99.90;;;;;;5059687;28;20048;-84
2023/03/22 10:37:04;;;;;;;2.83;0.95;;;13.30;99.90;;;;;;5058633;28;20049;-84
2023/03/22 10:39:30;;;;;;;5.40;1.10;;;13.10;99.90;;;;;;5075104;28;20037;-84
2023/03/22 10:41:57;;;;;;;3.63;0.93;;;13.00;99.90;;;;;;5074162;28;20059;-84
2023/03/22 10:44:24;;;;;;;3.08;0.90;;;12.80;99.90;;;;;;5075965;28;20048;-86
2023/03/22 10:46:51;;;;;;;2.53;0.82;;;12.80;99.90;;;;;;5059465;28;20052;-85
2023/03/22 10:49:17;;;;;;;2.53;1.00;;;12.70;99.90;;;;;;5076064;28;20127;-84
2023/03/22 10:51:44;;;;;;;2.53;0.85;;;12.60;99.90;;;;;;5075499;28;20047;-85
2023/03/22 10:54:10;;;;;;;0.93;0.60;;;12.60;99.90;;;;;;5059303;28;20524;-84
2023/03/22 10:56:37;;;;;;;4.35;1.10;;;12.50;99.90;;;;;;5074682;28;20052;-84
2023/03/22 10:59:04;;;;;;;2.13;0.90;;;12.50;99.90;;;;;;5076887;28;20044;-84
2023/03/22 11:01:31;;;;;;;2.60;0.88;;;12.60;99.90;;;;;;5076316;28;20041;-85
2023/03/22 11:03:57;;;;;;;3.95;1.10;;;12.60;99.90;;;;;;5074798;28;20135;-85
2023/03/22 11:06:24;;;;;;;3.15;1.00;;;12.60;99.90;;;;;;5058941;28;20135;-85
2023/03/22 11:08:51;;;;;;;6.28;1.10;;;12.50;99.90;;;;;;5058190;28;20451;-85
2023/03/22 11:11:18;;;;;;;7.00;1.30;;;12.50;99.90;;;;;;5058523;28;20045;-84
2023/03/22 11:13:44;;;;;;;7.43;1.40;;;12.50;99.90;;;;;;5058842;28;20455;-84
2023/03/22 11:16:11;;;;;;;6.07;1.35;;;12.50;99.90;;;;;;5074397;28;20045;-85
2023/03/22 11:18:38;;;;;;;10.05;1.40;;;12.60;99.90;;;;;;5060377;28;20040;-86
2023/03/22 11:21:04;;;;;;;9.02;1.30;;;13.10;99.90;;;;;;5058941;28;20142;-84
2023/03/22 11:23:31;;;;;;;5.93;1.08;;;13.70;99.90;;;;;;5074265;28;20036;-84
2023/03/22 11:25:59;;;;;;;5.28;1.10;;;14.20;99.90;;;;;;5075129;28;20036;-84
2023/03/22 11:28:26;;;;;;;2.13;0.98;;;14.40;99.90;;;;;;5074254;28;20144;-84
2023/03/22 11:30:52;;;;;;;4.75;1.10;;;14.20;99.90;;;;;;5075138;28;20055;-83
2023/03/22 11:33:19;;;;;;;3.28;1.17;;;14.10;99.90;;;;;;5076130;28;20455;-84
2023/03/22 11:35:46;;;;;;;3.92;1.00;;;14.10;99.90;;;;;;5073853;28;20056;-84
2023/03/22 11:38:13;;;;;;;4.07;1.27;;;14.30;99.90;;;;;;5058349;28;20501;-84
2023/03/22 11:40:40;;;;;;;3.15;1.10;;;14.20;99.90;;;;;;5076087;28;20132;-83
2023/03/22 11:43:06;;;;;;;4.35;1.00;;;14.20;99.90;;;;;;5074366;28;20119;-83
2023/03/22 11:45:36;;;;;;;2.22;0.80;;;14.30;99.90;;;;;;5074808;28;20064;-83
2023/03/22 11:48:03;;;;;;;3.47;0.90;;;14.30;99.90;;;;;;5074698;28;20040;-83
2023/03/22 11:50:30;;;;;;;4.22;0.90;;;14.60;99.90;;;;;;5073413;28;20041;-83
2023/03/22 11:52:56;;;;;;;1.50;0.80;;;14.80;99.90;;;;;;5074622;28;20045;-83
2023/03/22 11:55:23;;;;;;;3.03;0.95;;;14.60;99.90;;;;;;5073452;28;20044;-82
2023/03/22 11:57:50;;;;;;;3.83;0.90;;;14.60;99.90;;;;;;5057993;28;20041;-82
2023/03/22 12:00:19;;;;;;;0.80;0.70;;;14.60;99.90;;;;;;5075635;28;20045;-82
2023/03/22 12:02:46;;;;;;;1.52;0.80;;;14.70;99.90;;;;;;5072798;28;20368;-82
2023/03/22 12:05:12;;;;;;;1.27;0.80;;;14.80;99.90;;;;;;5075401;28;20124;-84
2023/03/22 12:07:41;;;;;;;1.70;0.88;;;14.90;99.90;;;;;;5057681;28;20044;-84
2023/03/22 12:10:08;;;;;;;1.25;0.80;;;15.10;99.90;;;;;;5053207;28;20049;-83
2023/03/22 12:12:35;;;;;;;1.27;0.80;;;15.10;99.90;;;;;;5050310;28;20049;-81
2023/03/22 12:15:02;;;;;;;2.25;0.90;;;15.00;99.90;;;;;;5089374;28;20055;-83
2023/03/22 12:17:31;;;;;;;2.45;0.88;;;14.90;99.90;;;;;;5057780;28;20052;-84
2023/03/22 12:19:58;;;;;;;1.90;0.80;;;14.70;99.90;;;;;;5074061;28;20048;-82
2023/03/22 12:22:25;;;;;;;2.25;0.90;;;14.60;99.90;;;;;;5073500;28;20044;-83
2023/03/22 12:24:52;;;;;;;0.70;0.70;;;14.70;99.90;;;;;;5075129;28;20411;-84
2023/03/22 12:29:50;;;;;;;0.70;0.70;;;14.90;99.90;;;;;;5064837;28;20055;-82
2023/03/22 12:32:17;;;;;;;4.13;0.80;;;15.20;99.90;;;;;;5074604;28;20495;-83
2023/03/22 12:34:43;;;;;;;0.65;0.65;;;15.50;99.90;;;;;;5057471;28;20060;-83
2023/03/22 12:37:11;;;;;;;3.47;0.90;;;15.80;99.90;;;;;;5066777;28;20041;-82
2023/03/22 12:39:38;;;;;;;2.20;0.85;;;15.80;99.90;;;;;;5056956;28;20059;-83
2023/03/22 12:42:04;;;;;;;1.13;0.82;;;16.00;99.90;;;;;;5072446;28;20040;-85
2023/03/22 12:44:31;;;;;;;1.92;0.93;;;16.00;99.90;;;;;;5048591;28;20053;-83
2023/03/22 12:49:44;;;;;;;2.72;0.80;;;16.40;99.90;;;;;;5054317;28;20040;-84
2023/03/22 12:52:11;;;;;;;3.60;0.90;;;16.30;99.90;;;;;;5054409;28;20037;-84
2023/03/22 12:54:37;;;;;;;3.22;0.90;;;15.80;99.90;;;;;;5037209;28;20124;-83
2023/03/22 12:57:05;;;;;;;1.85;0.70;;;15.60;99.90;;;;;;5053891;28;20355;-83
2023/03/22 12:59:32;;;;;;;3.92;0.90;;;15.60;99.90;;;;;;5020684;28;20482;-83
2023/03/22 13:01:59;;;;;;;2.20;0.80;;;15.30;99.90;;;;;;5053661;28;20044;-83
2023/03/22 13:04:26;;;;;;;3.85;1.10;;;15.20;99.90;;;;;;5020290;28;20148;-83
2023/03/22 13:06:54;;;;;;;4.50;1.00;;;15.20;99.90;;;;;;5037160;28;20037;-83
2023/03/22 13:09:21;;;;;;;3.05;1.15;;;15.10;99.90;;;;;;5036219;28;20049;-84
2023/03/22 13:11:47;;;;;;;5.35;1.00;;;15.10;99.90;;;;;;5037024;28;20033;-83
2023/03/22 13:14:14;;;;;;;2.53;1.10;;;15.10;99.90;;;;;;5054403;28;20052;-84
2023/03/22 13:16:42;;;;;;;2.97;1.02;;;15.30;99.90;;;;;;5036535;28;20051;-83
2023/03/22 13:19:09;;;;;;;3.80;0.98;;;15.40;99.90;;;;;;5017166;28;20119;-83
2023/03/22 13:21:35;;;;;;;2.88;1.10;;;15.50;99.90;;;;;;5034528;28;20045;-84
2023/03/22 13:24:06;;;;;;;5.65;0.93;;;15.60;99.90;;;;;;5016289;28;20128;-84
2023/03/22 13:26:33;;;;;;;4.57;1.10;;;15.60;99.90;;;;;;5034522;28;20120;-84
2023/03/22 13:28:59;;;;;;;5.13;1.25;;;15.70;99.90;;;;;;5016479;28;20049;-83
2023/03/22 13:31:27;;;;;;;6.40;1.30;;;16.00;99.90;;;;;;5053771;28;20071;-84
2023/03/22 13:33:53;;;;;;;4.07;1.13;;;15.80;99.90;;;;;;5036862;28;20049;-83
2023/03/22 13:36:21;;;;;;;6.95;1.13;;;16.00;99.90;;;;;;5033615;28;20357;-85